sensor_id;sensor_type;location;lat;lon;timestamp;P1;durP1;ratioP1;P2;durP2;ratioP2
23336;SDS011;11840;45.414;12.372;2022-11-15T07:21:32;41.15;;;30.10;;
23336;SDS011;11840;45.414;12.372;2022-11-15T07:27:01;48.92;;;31.63;;
23336;SDS011;11840;45.414;12.372;2022-11-15T07:29:45;46.08;;;31.17;;
23336;SDS011;11840;45.414;12.372;2022-11-15T07:32:29;41.63;;;30.67;;
23336;SDS011;11840;45.414;12.372;2022-11-15T07:35:13;41.78;;;28.98;;
23336;SDS011;11840;45.414;12.372;2022-11-15T07:37:59;42.97;;;28.73;;
23336;SDS011;11840;45.414;12.372;2022-11-15T07:40:44;42.42;;;28.63;;
23336;SDS011;11840;45.414;12.372;2022-11-15T07:43:28;37.22;;;26.83;;
23336;SDS011;11840;45.414;12.372;2022-11-15T07:46:13;33.55;;;25.90;;
23336;SDS011;11840;45.414;12.372;2022-11-15T07:48:58;63.28;;;26.90;;
23336;SDS011;11840;45.414;12.372;2022-11-15T07:51:42;32.30;;;24.25;;
23336;SDS011;11840;45.414;12.372;2022-11-15T07:54:28;34.85;;;25.10;;
23336;SDS011;11840;45.414;12.372;2022-11-15T07:57:12;32.75;;;24.55;;
23336;SDS011;11840;45.414;12.372;2022-11-15T07:59:56;28.40;;;23.20;;
23336;SDS011;11840;45.414;12.372;2022-11-15T08:02:41;30.77;;;24.42;;
23336;SDS011;11840;45.414;12.372;2022-11-15T08:05:25;31.20;;;24.67;;
23336;SDS011;11840;45.414;12.372;2022-11-15T08:08:10;30.65;;;23.75;;
23336;SDS011;11840;45.414;12.372;2022-11-15T08:10:56;30.13;;;23.42;;
23336;SDS011;11840;45.414;12.372;2022-11-15T08:13:41;32.33;;;25.02;;
23336;SDS011;11840;45.414;12.372;2022-11-15T08:16:26;30.35;;;22.88;;
23336;SDS011;11840;45.414;12.372;2022-11-15T08:19:10;33.90;;;25.67;;
23336;SDS011;11840;45.414;12.372;2022-11-15T08:21:54;33.40;;;25.48;;
23336;SDS011;11840;45.414;12.372;2022-11-15T08:24:39;35.03;;;26.23;;
23336;SDS011;11840;45.414;12.372;2022-11-15T08:27:23;33.67;;;24.83;;
23336;SDS011;11840;45.414;12.372;2022-11-15T08:30:08;41.42;;;27.45;;
23336;SDS011;11840;45.414;12.372;2022-11-15T08:32:52;34.95;;;25.02;;
23336;SDS011;11840;45.414;12.372;2022-11-15T08:35:37;30.77;;;23.48;;
23336;SDS011;11840;45.414;12.372;2022-11-15T08:38:21;28.65;;;23.25;;
23336;SDS011;11840;45.414;12.372;2022-11-15T08:41:05;29.67;;;22.27;;
23336;SDS011;11840;45.414;12.372;2022-11-15T08:43:49;26.38;;;21.15;;
23336;SDS011;11840;45.414;12.372;2022-11-15T08:46:34;26.67;;;21.95;;
23336;SDS011;11840;45.414;12.372;2022-11-15T08:49:18;26.85;;;20.38;;
23336;SDS011;11840;45.414;12.372;2022-11-15T08:52:03;27.38;;;21.02;;
23336;SDS011;11840;45.414;12.372;2022-11-15T08:54:48;26.20;;;21.83;;
23336;SDS011;11840;45.414;12.372;2022-11-15T08:57:33;25.85;;;20.75;;
23336;SDS011;11840;45.414;12.372;2022-11-15T09:00:17;25.55;;;20.80;;
23336;SDS011;11840;45.414;12.372;2022-11-15T09:03:06;25.15;;;18.88;;
23336;SDS011;11840;45.414;12.372;2022-11-15T09:05:54;23.42;;;19.15;;
23336;SDS011;11840;45.414;12.372;2022-11-15T09:08:39;24.58;;;19.85;;
23336;SDS011;11840;45.414;12.372;2022-11-15T09:11:23;25.35;;;20.27;;
23336;SDS011;11840;45.414;12.372;2022-11-15T09:14:09;24.63;;;19.92;;
23336;SDS011;11840;45.414;12.372;2022-11-15T09:16:54;24.45;;;19.33;;
23336;SDS011;11840;45.414;12.372;2022-11-15T09:19:37;24.30;;;18.70;;
23336;SDS011;11840;45.414;12.372;2022-11-15T09:22:22;24.67;;;20.15;;
23336;SDS011;11840;45.414;12.372;2022-11-15T09:25:07;25.52;;;20.52;;
23336;SDS011;11840;45.414;12.372;2022-11-15T09:27:53;23.33;;;19.70;;
23336;SDS011;11840;45.414;12.372;2022-11-15T09:30:37;26.27;;;20.55;;
23336;SDS011;11840;45.414;12.372;2022-11-15T09:33:22;25.70;;;20.38;;
23336;SDS011;11840;45.414;12.372;2022-11-15T09:36:07;25.85;;;19.33;;
23336;SDS011;11840;45.414;12.372;2022-11-15T09:38:51;27.30;;;21.00;;
23336;SDS011;11840;45.414;12.372;2022-11-15T09:44:35;24.00;;;20.02;;
23336;SDS011;11840;45.414;12.372;2022-11-15T09:50:42;33.92;;;20.08;;
23336;SDS011;11840;45.414;12.372;2022-11-15T09:53:11;29.65;;;19.40;;
23336;SDS011;11840;45.414;12.372;2022-11-15T09:55:41;31.50;;;20.85;;
23336;SDS011;11840;45.414;12.372;2022-11-15T09:58:16;28.27;;;22.10;;
23336;SDS011;11840;45.414;12.372;2022-11-15T10:00:45;30.25;;;23.58;;
23336;SDS011;11840;45.414;12.372;2022-11-15T10:03:18;29.38;;;22.55;;
23336;SDS011;11840;45.414;12.372;2022-11-15T10:05:46;35.53;;;24.25;;
23336;SDS011;11840;45.414;12.372;2022-11-15T10:10:43;32.92;;;24.38;;
23336;SDS011;11840;45.414;12.372;2022-11-15T10:13:21;37.22;;;26.60;;
23336;SDS011;11840;45.414;12.372;2022-11-15T10:15:48;36.78;;;26.90;;
23336;SDS011;11840;45.414;12.372;2022-11-15T10:18:16;38.10;;;28.20;;
23336;SDS011;11840;45.414;12.372;2022-11-15T10:20:51;36.22;;;26.88;;
23336;SDS011;11840;45.414;12.372;2022-11-15T10:23:18;37.67;;;27.00;;
23336;SDS011;11840;45.414;12.372;2022-11-15T10:25:44;37.92;;;27.50;;
23336;SDS011;11840;45.414;12.372;2022-11-15T10:30:47;37.25;;;26.80;;
23336;SDS011;11840;45.414;12.372;2022-11-15T10:33:47;38.33;;;26.83;;
23336;SDS011;11840;45.414;12.372;2022-11-15T10:36:25;38.83;;;27.80;;
23336;SDS011;11840;45.414;12.372;2022-11-15T10:38:53;42.00;;;29.45;;
23336;SDS011;11840;45.414;12.372;2022-11-15T10:41:53;41.63;;;28.23;;
23336;SDS011;11840;45.414;12.372;2022-11-15T10:46:41;35.25;;;27.33;;
23336;SDS011;11840;45.414;12.372;2022-11-15T10:49:15;39.00;;;28.02;;
23336;SDS011;11840;45.414;12.372;2022-11-15T10:54:07;34.97;;;26.67;;
23336;SDS011;11840;45.414;12.372;2022-11-15T10:56:35;37.72;;;27.85;;
23336;SDS011;11840;45.414;12.372;2022-11-15T10:59:01;36.15;;;28.10;;
23336;SDS011;11840;45.414;12.372;2022-11-15T11:01:28;39.35;;;27.90;;
23336;SDS011;11840;45.414;12.372;2022-11-15T11:04:06;40.15;;;29.10;;
23336;SDS011;11840;45.414;12.372;2022-11-15T11:06:45;39.20;;;29.75;;
23336;SDS011;11840;45.414;12.372;2022-11-15T11:09:22;40.15;;;29.98;;
23336;SDS011;11840;45.414;12.372;2022-11-15T11:11:49;39.60;;;29.92;;
23336;SDS011;11840;45.414;12.372;2022-11-15T11:14:36;40.22;;;29.88;;
23336;SDS011;11840;45.414;12.372;2022-11-15T11:19:53;37.55;;;28.98;;
23336;SDS011;11840;45.414;12.372;2022-11-15T11:22:55;37.97;;;29.02;;
23336;SDS011;11840;45.414;12.372;2022-11-15T11:27:42;38.78;;;28.08;;
23336;SDS011;11840;45.414;12.372;2022-11-15T11:30:10;37.17;;;28.98;;
23336;SDS011;11840;45.414;12.372;2022-11-15T11:35:22;37.38;;;28.73;;
23336;SDS011;11840;45.414;12.372;2022-11-15T11:37:55;40.00;;;29.58;;
23336;SDS011;11840;45.414;12.372;2022-11-15T11:40:44;41.72;;;31.50;;
23336;SDS011;11840;45.414;12.372;2022-11-15T11:43:17;38.70;;;29.08;;
23336;SDS011;11840;45.414;12.372;2022-11-15T11:46:11;37.40;;;28.13;;
23336;SDS011;11840;45.414;12.372;2022-11-15T11:48:42;36.00;;;27.05;;
23336;SDS011;11840;45.414;12.372;2022-11-15T11:52:10;35.22;;;26.60;;
23336;SDS011;11840;45.414;12.372;2022-11-15T11:56:37;35.95;;;26.75;;
23336;SDS011;11840;45.414;12.372;2022-11-15T12:01:42;34.72;;;27.63;;
23336;SDS011;11840;45.414;12.372;2022-11-15T12:14:04;36.10;;;27.08;;
23336;SDS011;11840;45.414;12.372;2022-11-15T12:16:31;39.92;;;28.60;;
23336;SDS011;11840;45.414;12.372;2022-11-15T12:19:01;35.28;;;27.23;;
23336;SDS011;11840;45.414;12.372;2022-11-15T12:21:41;47.25;;;29.02;;
23336;SDS011;11840;45.414;12.372;2022-11-15T12:24:21;38.42;;;28.35;;
23336;SDS011;11840;45.414;12.372;2022-11-15T12:26:50;33.33;;;25.98;;
23336;SDS011;11840;45.414;12.372;2022-11-15T12:29:20;36.10;;;27.08;;
23336;SDS011;11840;45.414;12.372;2022-11-15T12:31:48;31.55;;;24.67;;
23336;SDS011;11840;45.414;12.372;2022-11-15T12:36:48;35.35;;;26.67;;
23336;SDS011;11840;45.414;12.372;2022-11-15T12:39:15;34.40;;;26.00;;
23336;SDS011;11840;45.414;12.372;2022-11-15T12:41:44;32.45;;;25.42;;
23336;SDS011;11840;45.414;12.372;2022-11-15T12:59:52;35.90;;;25.02;;
23336;SDS011;11840;45.414;12.372;2022-11-15T13:02:22;34.58;;;26.85;;
23336;SDS011;11840;45.414;12.372;2022-11-15T13:04:48;35.78;;;26.83;;
23336;SDS011;11840;45.414;12.372;2022-11-15T13:09:59;33.95;;;25.48;;
23336;SDS011;11840;45.414;12.372;2022-11-15T13:17:56;34.95;;;25.65;;
23336;SDS011;11840;45.414;12.372;2022-11-15T13:20:31;33.50;;;25.48;;
23336;SDS011;11840;45.414;12.372;2022-11-15T13:23:10;34.28;;;25.88;;
23336;SDS011;11840;45.414;12.372;2022-11-15T13:30:52;35.90;;;24.80;;
23336;SDS011;11840;45.414;12.372;2022-11-15T13:33:19;34.22;;;25.83;;
23336;SDS011;11840;45.414;12.372;2022-11-15T13:35:46;35.17;;;25.40;;
23336;SDS011;11840;45.414;12.372;2022-11-15T13:38:32;31.90;;;24.75;;
23336;SDS011;11840;45.414;12.372;2022-11-15T13:40:58;33.05;;;25.50;;
23336;SDS011;11840;45.414;12.372;2022-11-15T13:46:06;35.28;;;24.35;;
23336;SDS011;11840;45.414;12.372;2022-11-15T13:48:33;35.78;;;26.20;;
23336;SDS011;11840;45.414;12.372;2022-11-15T13:51:03;33.97;;;24.75;;
23336;SDS011;11840;45.414;12.372;2022-11-15T13:53:31;32.17;;;25.00;;
23336;SDS011;11840;45.414;12.372;2022-11-15T13:55:58;32.63;;;25.02;;
23336;SDS011;11840;45.414;12.372;2022-11-15T13:58:24;35.15;;;25.52;;
23336;SDS011;11840;45.414;12.372;2022-11-15T14:00:58;34.72;;;26.38;;
23336;SDS011;11840;45.414;12.372;2022-11-15T14:03:26;32.50;;;25.58;;
23336;SDS011;11840;45.414;12.372;2022-11-15T14:08:28;34.72;;;25.30;;
23336;SDS011;11840;45.414;12.372;2022-11-15T14:13:36;32.90;;;24.23;;
23336;SDS011;11840;45.414;12.372;2022-11-15T14:16:12;30.98;;;23.98;;
23336;SDS011;11840;45.414;12.372;2022-11-15T14:18:46;35.45;;;26.02;;
23336;SDS011;11840;45.414;12.372;2022-11-15T14:21:11;31.25;;;24.65;;
23336;SDS011;11840;45.414;12.372;2022-11-15T14:23:38;35.40;;;24.88;;
23336;SDS011;11840;45.414;12.372;2022-11-15T14:26:04;33.97;;;25.25;;
23336;SDS011;11840;45.414;12.372;2022-11-15T14:28:31;33.33;;;25.05;;
23336;SDS011;11840;45.414;12.372;2022-11-15T14:30:59;36.85;;;25.98;;
23336;SDS011;11840;45.414;12.372;2022-11-15T14:35:57;35.97;;;26.95;;
23336;SDS011;11840;45.414;12.372;2022-11-15T14:38:23;34.78;;;26.08;;
23336;SDS011;11840;45.414;12.372;2022-11-15T14:40:49;43.65;;;27.60;;
23336;SDS011;11840;45.414;12.372;2022-11-15T14:43:15;34.25;;;25.55;;
23336;SDS011;11840;45.414;12.372;2022-11-15T14:45:41;34.78;;;25.95;;
23336;SDS011;11840;45.414;12.372;2022-11-15T14:48:07;35.60;;;26.13;;
23336;SDS011;11840;45.414;12.372;2022-11-15T14:50:34;37.45;;;26.00;;
23336;SDS011;11840;45.414;12.372;2022-11-15T14:52:59;39.38;;;27.08;;
23336;SDS011;11840;45.414;12.372;2022-11-15T14:55:29;38.22;;;26.45;;
23336;SDS011;11840;45.414;12.372;2022-11-15T14:57:57;38.25;;;26.65;;
23336;SDS011;11840;45.414;12.372;2022-11-15T15:00:24;40.10;;;28.60;;
23336;SDS011;11840;45.414;12.372;2022-11-15T15:02:51;37.90;;;27.98;;
23336;SDS011;11840;45.414;12.372;2022-11-15T15:05:19;41.20;;;27.90;;
23336;SDS011;11840;45.414;12.372;2022-11-15T15:07:46;40.67;;;27.90;;
23336;SDS011;11840;45.414;12.372;2022-11-15T15:10:13;36.47;;;26.00;;
23336;SDS011;11840;45.414;12.372;2022-11-15T15:12:39;36.03;;;25.67;;
23336;SDS011;11840;45.414;12.372;2022-11-15T15:15:05;37.30;;;26.83;;
23336;SDS011;11840;45.414;12.372;2022-11-15T15:17:31;35.47;;;24.58;;
23336;SDS011;11840;45.414;12.372;2022-11-15T15:19:57;35.78;;;24.45;;
23336;SDS011;11840;45.414;12.372;2022-11-15T15:22:23;34.53;;;24.25;;
23336;SDS011;11840;45.414;12.372;2022-11-15T15:24:51;36.78;;;24.38;;
23336;SDS011;11840;45.414;12.372;2022-11-15T15:27:17;36.50;;;25.20;;
23336;SDS011;11840;45.414;12.372;2022-11-15T15:29:43;33.42;;;24.60;;
23336;SDS011;11840;45.414;12.372;2022-11-15T15:32:09;31.77;;;22.40;;
23336;SDS011;11840;45.414;12.372;2022-11-15T15:34:36;33.45;;;23.75;;
23336;SDS011;11840;45.414;12.372;2022-11-15T15:39:48;35.70;;;23.80;;
23336;SDS011;11840;45.414;12.372;2022-11-15T15:42:14;35.30;;;25.10;;
23336;SDS011;11840;45.414;12.372;2022-11-15T15:44:41;34.10;;;24.70;;
23336;SDS011;11840;45.414;12.372;2022-11-15T15:47:13;31.83;;;23.70;;
23336;SDS011;11840;45.414;12.372;2022-11-15T15:49:40;35.10;;;24.48;;
23336;SDS011;11840;45.414;12.372;2022-11-15T15:52:07;33.55;;;24.70;;
23336;SDS011;11840;45.414;12.372;2022-11-15T15:54:33;31.40;;;22.70;;
23336;SDS011;11840;45.414;12.372;2022-11-15T15:56:59;32.13;;;22.50;;
23336;SDS011;11840;45.414;12.372;2022-11-15T15:59:24;31.50;;;23.13;;
23336;SDS011;11840;45.414;12.372;2022-11-15T16:01:50;31.67;;;23.15;;
23336;SDS011;11840;45.414;12.372;2022-11-15T16:04:17;31.20;;;22.52;;
23336;SDS011;11840;45.414;12.372;2022-11-15T16:06:44;35.72;;;24.35;;
23336;SDS011;11840;45.414;12.372;2022-11-15T16:09:12;31.45;;;22.55;;
23336;SDS011;11840;45.414;12.372;2022-11-15T16:11:39;30.40;;;23.17;;
23336;SDS011;11840;45.414;12.372;2022-11-15T16:14:05;29.10;;;21.85;;
23336;SDS011;11840;45.414;12.372;2022-11-15T16:16:32;31.40;;;23.02;;
23336;SDS011;11840;45.414;12.372;2022-11-15T16:18:57;31.60;;;23.23;;
23336;SDS011;11840;45.414;12.372;2022-11-15T16:21:23;31.35;;;22.92;;
23336;SDS011;11840;45.414;12.372;2022-11-15T16:23:50;30.63;;;22.58;;
23336;SDS011;11840;45.414;12.372;2022-11-15T16:26:26;33.88;;;24.70;;
23336;SDS011;11840;45.414;12.372;2022-11-15T16:28:52;32.42;;;23.90;;
23336;SDS011;11840;45.414;12.372;2022-11-15T16:31:19;32.33;;;23.40;;
23336;SDS011;11840;45.414;12.372;2022-11-15T16:33:47;30.52;;;22.58;;
23336;SDS011;11840;45.414;12.372;2022-11-15T16:36:23;31.98;;;23.27;;
23336;SDS011;11840;45.414;12.372;2022-11-15T16:38:50;31.13;;;23.13;;
23336;SDS011;11840;45.414;12.372;2022-11-15T16:41:16;34.50;;;23.17;;
23336;SDS011;11840;45.414;12.372;2022-11-15T16:43:47;32.10;;;23.58;;
23336;SDS011;11840;45.414;12.372;2022-11-15T16:46:17;32.75;;;22.73;;
23336;SDS011;11840;45.414;12.372;2022-11-15T16:48:48;35.17;;;23.75;;
23336;SDS011;11840;45.414;12.372;2022-11-15T16:51:14;33.30;;;24.05;;
23336;SDS011;11840;45.414;12.372;2022-11-15T16:53:40;33.67;;;23.40;;
23336;SDS011;11840;45.414;12.372;2022-11-15T16:58:39;32.40;;;23.35;;
23336;SDS011;11840;45.414;12.372;2022-11-15T17:01:05;34.97;;;23.63;;
23336;SDS011;11840;45.414;12.372;2022-11-15T17:03:31;31.52;;;22.95;;
23336;SDS011;11840;45.414;12.372;2022-11-15T17:05:57;33.13;;;23.80;;
23336;SDS011;11840;45.414;12.372;2022-11-15T17:08:24;32.38;;;23.52;;
23336;SDS011;11840;45.414;12.372;2022-11-15T17:10:50;34.35;;;25.05;;
23336;SDS011;11840;45.414;12.372;2022-11-15T17:13:17;33.75;;;23.90;;
23336;SDS011;11840;45.414;12.372;2022-11-15T17:15:42;33.88;;;24.48;;
23336;SDS011;11840;45.414;12.372;2022-11-15T17:18:11;32.38;;;23.95;;
23336;SDS011;11840;45.414;12.372;2022-11-15T17:20:40;32.40;;;24.05;;
23336;SDS011;11840;45.414;12.372;2022-11-15T17:23:08;31.77;;;23.42;;
23336;SDS011;11840;45.414;12.372;2022-11-15T17:25:38;32.85;;;23.98;;
23336;SDS011;11840;45.414;12.372;2022-11-15T17:28:04;33.03;;;24.75;;
23336;SDS011;11840;45.414;12.372;2022-11-15T17:30:30;31.80;;;23.15;;
23336;SDS011;11840;45.414;12.372;2022-11-15T17:32:55;34.90;;;24.55;;
23336;SDS011;11840;45.414;12.372;2022-11-15T17:35:21;33.15;;;24.10;;
23336;SDS011;11840;45.414;12.372;2022-11-15T17:37:48;31.75;;;22.98;;
23336;SDS011;11840;45.414;12.372;2022-11-15T17:40:14;35.03;;;23.83;;
23336;SDS011;11840;45.414;12.372;2022-11-15T17:42:40;32.92;;;23.90;;
23336;SDS011;11840;45.414;12.372;2022-11-15T17:45:07;35.85;;;24.60;;
23336;SDS011;11840;45.414;12.372;2022-11-15T17:47:33;32.83;;;22.75;;
23336;SDS011;11840;45.414;12.372;2022-11-15T17:50:00;32.55;;;23.10;;
23336;SDS011;11840;45.414;12.372;2022-11-15T17:52:26;32.88;;;23.13;;
23336;SDS011;11840;45.414;12.372;2022-11-15T17:54:52;29.88;;;22.67;;
23336;SDS011;11840;45.414;12.372;2022-11-15T17:57:18;30.92;;;21.50;;
23336;SDS011;11840;45.414;12.372;2022-11-15T17:59:44;31.20;;;22.80;;
23336;SDS011;11840;45.414;12.372;2022-11-15T18:02:10;30.10;;;21.63;;
23336;SDS011;11840;45.414;12.372;2022-11-15T18:04:36;29.73;;;21.45;;
23336;SDS011;11840;45.414;12.372;2022-11-15T18:07:02;27.27;;;21.45;;
23336;SDS011;11840;45.414;12.372;2022-11-15T18:09:28;29.70;;;21.08;;
23336;SDS011;11840;45.414;12.372;2022-11-15T18:11:54;43.17;;;21.38;;
23336;SDS011;11840;45.414;12.372;2022-11-15T18:14:20;28.65;;;21.23;;
23336;SDS011;11840;45.414;12.372;2022-11-15T18:16:47;28.13;;;20.73;;
23336;SDS011;11840;45.414;12.372;2022-11-15T18:19:12;28.35;;;20.15;;
23336;SDS011;11840;45.414;12.372;2022-11-15T18:21:39;29.48;;;21.75;;
23336;SDS011;11840;45.414;12.372;2022-11-15T18:24:24;29.77;;;21.30;;
23336;SDS011;11840;45.414;12.372;2022-11-15T18:26:50;30.90;;;20.38;;
23336;SDS011;11840;45.414;12.372;2022-11-15T18:29:17;30.40;;;21.40;;
23336;SDS011;11840;45.414;12.372;2022-11-15T18:31:43;31.17;;;21.70;;
23336;SDS011;11840;45.414;12.372;2022-11-15T18:34:09;30.40;;;21.67;;
23336;SDS011;11840;45.414;12.372;2022-11-15T18:36:34;27.17;;;20.58;;
23336;SDS011;11840;45.414;12.372;2022-11-15T18:39:01;29.40;;;20.92;;
23336;SDS011;11840;45.414;12.372;2022-11-15T18:41:27;28.98;;;20.00;;
23336;SDS011;11840;45.414;12.372;2022-11-15T18:43:54;28.90;;;20.83;;
23336;SDS011;11840;45.414;12.372;2022-11-15T18:46:21;30.80;;;21.00;;
23336;SDS011;11840;45.414;12.372;2022-11-15T18:48:48;28.98;;;20.40;;
23336;SDS011;11840;45.414;12.372;2022-11-15T18:51:34;29.23;;;21.77;;
23336;SDS011;11840;45.414;12.372;2022-11-15T18:54:01;31.25;;;20.50;;
23336;SDS011;11840;45.414;12.372;2022-11-15T18:56:31;28.95;;;20.17;;
23336;SDS011;11840;45.414;12.372;2022-11-15T18:58:57;27.48;;;19.95;;
23336;SDS011;11840;45.414;12.372;2022-11-15T19:01:27;27.73;;;20.42;;
23336;SDS011;11840;45.414;12.372;2022-11-15T19:03:55;26.33;;;19.60;;
23336;SDS011;11840;45.414;12.372;2022-11-15T19:06:25;29.27;;;18.95;;
23336;SDS011;11840;45.414;12.372;2022-11-15T19:08:51;26.02;;;18.38;;
23336;SDS011;11840;45.414;12.372;2022-11-15T19:11:19;24.70;;;18.42;;
23336;SDS011;11840;45.414;12.372;2022-11-15T19:13:46;27.70;;;20.15;;
23336;SDS011;11840;45.414;12.372;2022-11-15T19:16:13;28.92;;;20.90;;
23336;SDS011;11840;45.414;12.372;2022-11-15T19:18:39;28.92;;;20.00;;
23336;SDS011;11840;45.414;12.372;2022-11-15T19:21:07;29.45;;;20.25;;
23336;SDS011;11840;45.414;12.372;2022-11-15T19:23:35;28.42;;;20.48;;
23336;SDS011;11840;45.414;12.372;2022-11-15T19:26:02;30.25;;;21.55;;
23336;SDS011;11840;45.414;12.372;2022-11-15T19:28:29;29.67;;;21.27;;
23336;SDS011;11840;45.414;12.372;2022-11-15T19:31:04;29.30;;;20.63;;
23336;SDS011;11840;45.414;12.372;2022-11-15T19:33:31;25.48;;;19.42;;
23336;SDS011;11840;45.414;12.372;2022-11-15T19:36:04;26.20;;;19.55;;
23336;SDS011;11840;45.414;12.372;2022-11-15T19:38:30;26.27;;;19.13;;
23336;SDS011;11840;45.414;12.372;2022-11-15T19:41:00;23.10;;;16.27;;
23336;SDS011;11840;45.414;12.372;2022-11-15T19:43:26;20.27;;;15.93;;
23336;SDS011;11840;45.414;12.372;2022-11-15T19:45:55;23.83;;;16.45;;
23336;SDS011;11840;45.414;12.372;2022-11-15T19:48:21;26.00;;;18.25;;
23336;SDS011;11840;45.414;12.372;2022-11-15T19:50:47;29.38;;;20.58;;
23336;SDS011;11840;45.414;12.372;2022-11-15T19:53:13;34.05;;;21.30;;
23336;SDS011;11840;45.414;12.372;2022-11-15T19:55:39;32.67;;;22.48;;
23336;SDS011;11840;45.414;12.372;2022-11-15T19:58:05;35.17;;;24.80;;
23336;SDS011;11840;45.414;12.372;2022-11-15T20:00:31;35.55;;;24.27;;
23336;SDS011;11840;45.414;12.372;2022-11-15T20:02:56;37.70;;;26.33;;
23336;SDS011;11840;45.414;12.372;2022-11-15T20:05:22;105.82;;;73.65;;
23336;SDS011;11840;45.414;12.372;2022-11-15T20:07:48;40.70;;;30.75;;
23336;SDS011;11840;45.414;12.372;2022-11-15T20:10:15;40.58;;;28.40;;
23336;SDS011;11840;45.414;12.372;2022-11-15T20:12:41;40.72;;;29.85;;
23336;SDS011;11840;45.414;12.372;2022-11-15T20:15:07;36.67;;;28.65;;
23336;SDS011;11840;45.414;12.372;2022-11-15T20:17:33;42.00;;;29.17;;
23336;SDS011;11840;45.414;12.372;2022-11-15T20:19:59;40.20;;;29.00;;
23336;SDS011;11840;45.414;12.372;2022-11-15T20:22:26;42.08;;;29.60;;
23336;SDS011;11840;45.414;12.372;2022-11-15T20:24:52;38.15;;;29.00;;
23336;SDS011;11840;45.414;12.372;2022-11-15T20:27:19;39.55;;;28.77;;
23336;SDS011;11840;45.414;12.372;2022-11-15T20:29:45;39.38;;;28.42;;
23336;SDS011;11840;45.414;12.372;2022-11-15T20:32:12;39.72;;;28.23;;
23336;SDS011;11840;45.414;12.372;2022-11-15T20:34:39;38.88;;;28.17;;
23336;SDS011;11840;45.414;12.372;2022-11-15T20:37:05;40.40;;;28.40;;
23336;SDS011;11840;45.414;12.372;2022-11-15T20:39:31;37.33;;;27.48;;
23336;SDS011;11840;45.414;12.372;2022-11-15T20:41:57;36.88;;;27.10;;
23336;SDS011;11840;45.414;12.372;2022-11-15T20:44:23;37.03;;;27.52;;
23336;SDS011;11840;45.414;12.372;2022-11-15T20:46:48;37.13;;;27.13;;
23336;SDS011;11840;45.414;12.372;2022-11-15T20:49:14;35.83;;;24.80;;
23336;SDS011;11840;45.414;12.372;2022-11-15T20:51:41;35.58;;;24.63;;
23336;SDS011;11840;45.414;12.372;2022-11-15T20:54:06;30.73;;;23.38;;
23336;SDS011;11840;45.414;12.372;2022-11-15T20:56:33;37.10;;;28.73;;
23336;SDS011;11840;45.414;12.372;2022-11-15T20:58:59;34.67;;;24.67;;
23336;SDS011;11840;45.414;12.372;2022-11-15T21:01:25;32.88;;;24.92;;
23336;SDS011;11840;45.414;12.372;2022-11-15T21:03:51;33.47;;;24.70;;
23336;SDS011;11840;45.414;12.372;2022-11-15T21:06:18;30.73;;;22.73;;
23336;SDS011;11840;45.414;12.372;2022-11-15T21:08:46;33.97;;;23.90;;
23336;SDS011;11840;45.414;12.372;2022-11-15T21:11:30;30.42;;;22.85;;
23336;SDS011;11840;45.414;12.372;2022-11-15T21:14:14;30.38;;;22.05;;
23336;SDS011;11840;45.414;12.372;2022-11-15T21:16:40;28.17;;;21.17;;
23336;SDS011;11840;45.414;12.372;2022-11-15T21:19:06;28.52;;;21.35;;
23336;SDS011;11840;45.414;12.372;2022-11-15T21:21:33;27.90;;;20.33;;
23336;SDS011;11840;45.414;12.372;2022-11-15T21:24:01;27.98;;;21.55;;
23336;SDS011;11840;45.414;12.372;2022-11-15T21:26:28;29.75;;;21.85;;
23336;SDS011;11840;45.414;12.372;2022-11-15T21:28:53;28.15;;;21.98;;
23336;SDS011;11840;45.414;12.372;2022-11-15T21:31:20;29.45;;;21.98;;
23336;SDS011;11840;45.414;12.372;2022-11-15T21:33:46;29.42;;;21.85;;
23336;SDS011;11840;45.414;12.372;2022-11-15T21:36:12;28.90;;;20.65;;
23336;SDS011;11840;45.414;12.372;2022-11-15T21:38:38;27.85;;;20.70;;
23336;SDS011;11840;45.414;12.372;2022-11-15T21:41:04;31.15;;;21.50;;
23336;SDS011;11840;45.414;12.372;2022-11-15T21:43:31;30.30;;;22.80;;
23336;SDS011;11840;45.414;12.372;2022-11-15T21:45:57;30.33;;;22.42;;
23336;SDS011;11840;45.414;12.372;2022-11-15T21:48:24;28.70;;;21.70;;
23336;SDS011;11840;45.414;12.372;2022-11-15T21:50:57;30.27;;;20.95;;
23336;SDS011;11840;45.414;12.372;2022-11-15T21:53:23;32.33;;;22.77;;
23336;SDS011;11840;45.414;12.372;2022-11-15T21:55:49;29.42;;;22.00;;
23336;SDS011;11840;45.414;12.372;2022-11-15T21:58:15;28.77;;;21.70;;
23336;SDS011;11840;45.414;12.372;2022-11-15T22:00:42;25.52;;;19.95;;
23336;SDS011;11840;45.414;12.372;2022-11-15T22:03:26;32.35;;;21.58;;
23336;SDS011;11840;45.414;12.372;2022-11-15T22:05:52;28.02;;;20.52;;
23336;SDS011;11840;45.414;12.372;2022-11-15T22:08:19;27.98;;;21.02;;
23336;SDS011;11840;45.414;12.372;2022-11-15T22:10:46;24.80;;;19.52;;
23336;SDS011;11840;45.414;12.372;2022-11-15T22:13:12;25.58;;;17.10;;
23336;SDS011;11840;45.414;12.372;2022-11-15T22:15:38;23.88;;;18.10;;
23336;SDS011;11840;45.414;12.372;2022-11-15T22:18:04;23.55;;;18.13;;
23336;SDS011;11840;45.414;12.372;2022-11-15T22:20:31;25.48;;;18.08;;
23336;SDS011;11840;45.414;12.372;2022-11-15T22:22:57;20.42;;;16.38;;
23336;SDS011;11840;45.414;12.372;2022-11-15T22:25:24;23.15;;;16.60;;
23336;SDS011;11840;45.414;12.372;2022-11-15T22:27:50;23.70;;;16.98;;
23336;SDS011;11840;45.414;12.372;2022-11-15T22:30:16;21.80;;;16.70;;
23336;SDS011;11840;45.414;12.372;2022-11-15T22:32:42;23.73;;;17.63;;
23336;SDS011;11840;45.414;12.372;2022-11-15T22:35:08;22.80;;;17.00;;
23336;SDS011;11840;45.414;12.372;2022-11-15T22:37:34;23.45;;;16.50;;
23336;SDS011;11840;45.414;12.372;2022-11-15T22:40:00;20.38;;;15.90;;
23336;SDS011;11840;45.414;12.372;2022-11-15T22:42:26;22.95;;;16.00;;
23336;SDS011;11840;45.414;12.372;2022-11-15T22:44:52;21.75;;;15.15;;
23336;SDS011;11840;45.414;12.372;2022-11-15T22:47:17;19.73;;;15.02;;
23336;SDS011;11840;45.414;12.372;2022-11-15T22:49:43;20.40;;;15.60;;
23336;SDS011;11840;45.414;12.372;2022-11-15T22:52:09;19.70;;;14.63;;
23336;SDS011;11840;45.414;12.372;2022-11-15T22:54:36;22.10;;;15.85;;
23336;SDS011;11840;45.414;12.372;2022-11-15T22:57:02;19.55;;;14.82;;
23336;SDS011;11840;45.414;12.372;2022-11-15T22:59:28;24.02;;;16.23;;
23336;SDS011;11840;45.414;12.372;2022-11-15T23:01:54;22.33;;;16.92;;
23336;SDS011;11840;45.414;12.372;2022-11-15T23:04:20;21.90;;;16.05;;
23336;SDS011;11840;45.414;12.372;2022-11-15T23:06:47;22.83;;;16.85;;
23336;SDS011;11840;45.414;12.372;2022-11-15T23:09:13;21.88;;;16.15;;
23336;SDS011;11840;45.414;12.372;2022-11-15T23:11:39;22.48;;;17.15;;
23336;SDS011;11840;45.414;12.372;2022-11-15T23:14:23;24.13;;;17.05;;
23336;SDS011;11840;45.414;12.372;2022-11-15T23:16:49;22.10;;;17.13;;
23336;SDS011;11840;45.414;12.372;2022-11-15T23:19:16;24.45;;;16.92;;